Time;durP1;ratioP1;P1;durP2;ratioP2;P2;SDS_P1;SDS_P2;PMS_P1;PMS_P2;Temp;Humidity;BMP_temperature;BMP_pressure;BME280_temperature;BME280_humidity;BME280_pressure;Samples;Min_cycle;Max_cycle;Signal;HPM_P1;HPM_P2
2022/10/13 00:00:30;;;;;;;24.17;11.88;;;9.90;99.90;;;;;;5078147;28;20055;-68
2022/10/13 00:03:02;;;;;;;25.00;11.93;;;9.90;99.90;;;;;;5077598;28;20397;-70
2022/10/13 00:05:28;;;;;;;;;;;10.00;99.90;;;;;;5074631;28;20043;-70
2022/10/13 00:07:54;;;;;;;23.70;11.85;;;10.00;99.90;;;;;;5078788;28;20131;-69
2022/10/13 00:10:20;;;;;;;25.25;13.25;;;10.00;99.90;;;;;;5081836;28;20101;-70
2022/10/13 00:12:46;;;;;;;25.52;12.00;;;10.00;99.90;;;;;;5062165;28;20040;-70
2022/10/13 00:15:11;;;;;;;24.02;11.60;;;10.10;99.90;;;;;;5079195;28;20036;-70
2022/10/13 00:17:37;;;;;;;24.65;13.20;;;10.00;99.90;;;;;;5077446;28;20118;-69
2022/10/13 00:20:05;;;;;;;24.63;12.52;;;10.00;99.90;;;;;;5077928;28;20131;-69
2022/10/13 00:22:31;;;;;;;20.85;12.50;;;10.00;99.90;;;;;;5073610;28;20049;-69
2022/10/13 00:24:57;;;;;;;27.80;14.18;;;10.00;99.90;;;;;;5071377;28;20064;-70
2022/10/13 00:27:23;;;;;;;25.33;12.90;;;10.10;99.90;;;;;;5080657;28;20052;-69
2022/10/13 00:29:49;;;;;;;27.23;12.68;;;10.00;99.90;;;;;;5075674;28;20048;-70
2022/10/13 00:32:15;;;;;;;26.90;11.90;;;10.00;99.90;;;;;;5068242;28;20036;-70
2022/10/13 00:34:41;;;;;;;26.70;12.52;;;10.30;99.90;;;;;;5077796;28;20503;-70
2022/10/13 00:37:07;;;;;;;24.25;12.43;;;10.00;99.90;;;;;;5057481;28;20181;-70
2022/10/13 00:39:32;;;;;;;28.48;12.43;;;10.00;99.90;;;;;;5080063;28;20048;-69
2022/10/13 00:41:59;;;;;;;25.58;11.75;;;10.00;99.90;;;;;;5082693;28;20040;-70
2022/10/13 00:45:10;;;;;;;32.90;13.75;;;10.00;99.90;;;;;;5080290;28;20037;-70
2022/10/13 00:47:45;;;;;;;25.48;11.82;;;10.00;99.90;;;;;;5053540;28;20043;-70
2022/10/13 00:50:16;;;;;;;24.17;12.27;;;10.00;99.90;;;;;;5078152;28;20036;-70
2022/10/13 00:52:43;;;;;;;24.95;12.68;;;10.20;99.90;;;;;;5078933;28;20042;-70
2022/10/13 00:55:12;;;;;;;23.90;12.32;;;10.00;99.90;;;;;;5063143;28;20052;-70
2022/10/13 00:57:40;;;;;;;23.02;12.55;;;10.00;99.90;;;;;;5063329;28;20051;-69
2022/10/13 01:00:06;;;;;;;27.05;12.95;;;10.00;99.90;;;;;;5079920;28;20055;-69
2022/10/13 01:02:36;;;;;;;27.92;13.20;;;10.00;99.90;;;;;;5071768;28;20040;-69
2022/10/13 01:05:03;;;;;;;28.63;12.23;;;10.00;99.90;;;;;;5077102;28;20047;-69
2022/10/13 01:07:29;;;;;;;32.25;13.20;;;10.00;99.90;;;;;;5076231;28;20041;-69
2022/10/13 01:09:55;;;;;;;22.67;12.10;;;10.00;99.90;;;;;;5074994;28;20039;-69
2022/10/13 01:12:30;;;;;;;27.70;12.10;;;10.00;99.90;;;;;;5072090;28;20047;-69
2022/10/13 01:15:16;;;;;;;23.15;12.50;;;10.00;99.90;;;;;;5091836;28;20045;-69
2022/10/13 01:18:15;;;;;;;27.55;13.38;;;10.00;99.90;;;;;;5072214;28;20051;-70
2022/10/13 01:20:44;;;;;;;24.30;12.40;;;9.90;99.90;;;;;;5075648;28;20055;-69
2022/10/13 01:23:48;;;;;;;24.95;13.00;;;10.00;99.90;;;;;;5075924;28;20035;-69
2022/10/13 01:26:37;;;;;;;28.23;13.43;;;10.00;99.90;;;;;;5017591;28;20057;-70
2022/10/13 01:29:19;;;;;;;27.95;13.63;;;10.00;99.90;;;;;;5074235;28;20079;-69
2022/10/13 01:31:58;;;;;;;31.38;14.45;;;10.00;99.90;;;;;;5076267;28;20117;-69
2022/10/13 01:34:33;;;;;;;27.38;13.88;;;10.00;99.90;;;;;;5080038;28;20058;-69
2022/10/13 01:37:04;;;;;;;28.58;13.13;;;10.00;99.90;;;;;;5072083;28;20040;-70
2022/10/13 01:39:47;;;;;;;28.37;13.00;;;10.00;99.90;;;;;;5091873;28;21239;-69
2022/10/13 01:42:21;;;;;;;24.73;13.13;;;10.00;99.90;;;;;;5075923;28;20040;-69
2022/10/13 01:45:00;;;;;;;28.02;13.13;;;10.00;99.90;;;;;;5075796;28;20515;-69
2022/10/13 01:47:29;;;;;;;27.77;14.75;;;10.00;99.90;;;;;;5077302;28;20040;-70
2022/10/13 01:49:56;;;;;;;34.13;14.45;;;10.00;99.90;;;;;;5070644;28;20494;-69
2022/10/13 01:52:26;;;;;;;25.35;12.63;;;10.00;99.90;;;;;;5075489;28;20520;-69
2022/10/13 01:54:53;;;;;;;24.52;13.02;;;10.20;99.90;;;;;;5076360;28;20055;-70
2022/10/13 01:57:40;;;;;;;26.38;13.05;;;10.00;99.90;;;;;;5078339;28;20036;-69
2022/10/13 02:00:10;;;;;;;25.02;12.50;;;10.00;99.90;;;;;;5075783;28;20048;-70
2022/10/13 02:02:51;;;;;;;24.73;12.23;;;10.00;99.90;;;;;;5072197;28;20117;-69
2022/10/13 02:05:50;;;;;;;27.08;12.55;;;10.00;99.90;;;;;;5055256;28;20305;-69
2022/10/13 02:08:19;;;;;;;28.38;13.60;;;10.00;99.90;;;;;;5071170;28;20044;-69
2022/10/13 02:11:02;;;;;;;24.75;12.98;;;10.00;99.90;;;;;;5076444;28;20477;-69
2022/10/13 02:13:30;;;;;;;28.23;12.50;;;10.00;99.90;;;;;;5076704;28;20464;-69
2022/10/13 02:15:59;;;;;;;23.50;12.38;;;10.00;99.90;;;;;;5070188;28;20106;-70
2022/10/13 02:18:30;;;;;;;24.52;13.60;;;10.00;99.90;;;;;;5056973;28;20113;-69
2022/10/13 02:20:57;;;;;;;22.08;12.35;;;10.30;99.90;;;;;;5076850;28;20139;-69
2022/10/13 02:23:23;;;;;;;24.33;13.43;;;9.90;99.90;;;;;;5070441;28;20048;-70
2022/10/13 02:25:50;;;;;;;30.60;13.93;;;10.00;99.90;;;;;;5059717;28;20070;-70
2022/10/13 02:28:16;;;;;;;30.75;13.68;;;10.00;99.90;;;;;;5076170;28;20040;-70
2022/10/13 02:30:44;;;;;;;29.55;13.80;;;10.00;99.90;;;;;;5076936;28;20052;-70
2022/10/13 02:33:11;;;;;;;27.88;13.55;;;10.00;99.90;;;;;;5075668;28;20048;-70
2022/10/13 02:35:37;;;;;;;25.75;13.23;;;10.00;99.90;;;;;;5073550;28;20044;-70
2022/10/13 02:38:03;;;;;;;25.90;12.77;;;10.00;99.90;;;;;;5072672;28;20056;-70
2022/10/13 02:40:29;;;;;;;26.08;13.00;;;10.00;99.90;;;;;;5077567;28;20466;-70
2022/10/13 02:42:55;;;;;;;28.00;14.05;;;10.10;99.90;;;;;;5078991;28;20293;-70
2022/10/13 02:45:21;;;;;;;27.75;13.38;;;10.00;99.90;;;;;;5079045;28;20127;-70
2022/10/13 02:47:47;;;;;;;27.27;13.45;;;10.00;99.90;;;;;;5074872;28;20502;-70
2022/10/13 02:50:13;;;;;;;31.50;14.30;;;10.00;99.90;;;;;;5061445;28;20098;-70
2022/10/13 02:52:39;;;;;;;31.13;14.25;;;10.00;99.90;;;;;;5073549;28;20036;-70
2022/10/13 02:55:05;;;;;;;25.58;13.05;;;9.90;99.90;;;;;;5068259;28;20071;-70
2022/10/13 02:57:31;;;;;;;29.58;13.85;;;9.90;99.90;;;;;;5076175;28;20089;-70
2022/10/13 02:59:57;;;;;;;26.25;13.18;;;10.00;99.90;;;;;;5073196;28;20049;-70
2022/10/13 03:02:24;;;;;;;33.10;15.18;;;9.90;99.90;;;;;;5067553;28;20497;-70
2022/10/13 03:04:50;;;;;;;30.27;13.13;;;10.00;99.90;;;;;;5078636;28;20108;-70
2022/10/13 03:07:16;;;;;;;27.00;13.80;;;9.90;99.90;;;;;;5073179;28;20128;-69
2022/10/13 03:09:41;;;;;;;24.63;14.45;;;10.00;99.90;;;;;;5088096;28;20524;-70
2022/10/13 03:12:07;;;;;;;28.88;13.98;;;10.10;99.90;;;;;;5081121;28;20039;-70
2022/10/13 03:14:33;;;;;;;25.27;13.73;;;10.00;99.90;;;;;;5076948;28;20505;-69
2022/10/13 03:16:59;;;;;;;23.27;13.98;;;10.00;99.90;;;;;;5080920;28;20043;-69
2022/10/13 03:19:24;;;;;;;26.83;13.60;;;10.00;99.90;;;;;;5062677;28;20036;-69
2022/10/13 03:21:50;;;;;;;24.70;13.82;;;10.00;99.90;;;;;;5082006;28;20043;-70
2022/10/13 03:24:17;;;;;;;28.35;14.43;;;10.00;99.90;;;;;;5077013;28;20376;-69
2022/10/13 03:26:43;;;;;;;23.48;13.18;;;10.00;99.90;;;;;;5080541;28;20722;-70
2022/10/13 03:29:17;;;;;;;25.40;14.15;;;10.00;99.90;;;;;;5079833;28;20048;-69
2022/10/13 03:31:43;;;;;;;28.52;14.70;;;10.00;99.90;;;;;;5077593;28;20056;-70
2022/10/13 03:34:10;;;;;;;25.15;13.75;;;10.00;99.90;;;;;;5079424;28;20055;-69
2022/10/13 03:36:35;;;;;;;29.30;14.73;;;10.00;99.90;;;;;;5080234;28;20048;-69
2022/10/13 03:39:01;;;;;;;24.98;14.95;;;10.00;99.90;;;;;;5074167;28;20525;-70
2022/10/13 03:41:27;;;;;;;27.52;14.20;;;10.00;99.90;;;;;;5077568;28;20036;-70
2022/10/13 03:43:53;;;;;;;23.90;13.90;;;10.00;99.90;;;;;;5082579;28;20074;-69
2022/10/13 03:46:19;;;;;;;27.85;14.45;;;10.00;99.90;;;;;;5079356;28;20504;-69
2022/10/13 03:48:46;;;;;;;22.80;13.68;;;10.00;99.90;;;;;;5077015;28;20033;-70
2022/10/13 03:51:17;;;;;;;31.17;15.70;;;10.10;99.90;;;;;;5079850;28;20040;-70
2022/10/13 03:53:44;;;;;;;28.73;15.65;;;10.00;99.90;;;;;;5062177;28;20055;-69
2022/10/13 03:56:14;;;;;;;28.13;14.82;;;10.10;99.90;;;;;;5071878;28;20067;-70
2022/10/13 03:58:40;;;;;;;28.20;15.65;;;10.10;99.90;;;;;;5066558;28;20102;-70
2022/10/13 04:01:06;;;;;;;29.63;15.73;;;10.10;99.90;;;;;;5054469;28;20186;-70
2022/10/13 04:03:33;;;;;;;30.65;14.48;;;10.10;99.90;;;;;;5054628;28;20506;-70
2022/10/13 04:06:04;;;;;;;28.17;16.02;;;10.10;99.90;;;;;;5065694;28;20063;-70
2022/10/13 04:08:31;;;;;;;26.77;15.55;;;10.10;99.90;;;;;;5076798;28;20040;-70
2022/10/13 04:11:00;;;;;;;31.50;16.60;;;10.10;99.90;;;;;;5075053;28;20544;-70
2022/10/13 04:13:26;;;;;;;29.45;16.88;;;10.10;99.90;;;;;;5054654;28;20397;-70
2022/10/13 04:15:52;;;;;;;30.52;16.75;;;10.10;99.90;;;;;;5067009;28;20039;-70
2022/10/13 04:18:18;;;;;;;28.50;15.60;;;10.10;99.90;;;;;;5051382;28;20040;-70
2022/10/13 04:20:43;;;;;;;26.50;14.98;;;10.10;99.90;;;;;;5067123;28;20048;-70
2022/10/13 04:23:10;;;;;;;30.88;16.08;;;10.00;99.90;;;;;;5064491;28;20036;-70
2022/10/13 04:25:38;;;;;;;30.38;17.17;;;10.10;99.90;;;;;;5072935;28;20536;-69
2022/10/13 04:28:06;;;;;;;29.65;16.17;;;10.10;99.90;;;;;;5067936;28;20037;-69
2022/10/13 04:30:33;;;;;;;29.85;15.70;;;10.00;99.90;;;;;;5076385;28;20371;-70
2022/10/13 04:33:00;;;;;;;31.38;16.30;;;10.10;99.90;;;;;;5051974;28;20463;-70
2022/10/13 04:35:26;;;;;;;30.77;16.45;;;10.10;99.90;;;;;;5065036;28;20048;-70
2022/10/13 04:37:51;;;;;;;32.55;17.50;;;10.10;99.90;;;;;;5070330;28;20374;-69
2022/10/13 04:40:17;;;;;;;30.05;16.23;;;10.10;99.90;;;;;;5063205;28;20040;-70
2022/10/13 04:42:43;;;;;;;34.33;18.80;;;10.10;99.90;;;;;;5068051;28;20060;-70
2022/10/13 04:45:10;;;;;;;31.60;16.70;;;10.10;99.90;;;;;;5071913;28;20047;-70
2022/10/13 04:47:36;;;;;;;29.95;17.33;;;10.10;99.90;;;;;;5076385;28;20123;-69
2022/10/13 04:50:03;;;;;;;31.98;17.02;;;10.40;99.90;;;;;;5050840;28;20052;-70
2022/10/13 04:52:28;;;;;;;36.88;17.90;;;10.10;99.90;;;;;;5059024;28;20044;-71
2022/10/13 04:54:54;;;;;;;27.75;17.23;;;10.10;99.90;;;;;;5045829;28;20276;-71
2022/10/13 04:57:20;;;;;;;27.45;17.60;;;10.10;99.90;;;;;;5042592;28;20048;-71
2022/10/13 04:59:45;;;;;;;29.25;17.85;;;10.10;99.90;;;;;;5054894;28;20049;-71
2022/10/13 05:02:11;;;;;;;30.40;18.17;;;10.10;99.90;;;;;;5042252;28;20044;-70
2022/10/13 05:04:37;;;;;;;26.35;17.02;;;10.10;99.90;;;;;;5050835;28;20072;-71
2022/10/13 05:07:03;;;;;;;29.88;17.50;;;10.10;99.90;;;;;;5042654;28;20059;-72
2022/10/13 05:09:29;;;;;;;32.85;17.92;;;10.10;99.90;;;;;;5045474;28;20033;-72
2022/10/13 05:11:54;;;;;;;29.52;17.75;;;10.10;99.90;;;;;;5046397;28;20067;-71
2022/10/13 05:14:21;;;;;;;32.38;18.20;;;10.10;99.90;;;;;;5077727;27;20072;-71
2022/10/13 05:16:47;;;;;;;32.00;19.55;;;10.10;99.90;;;;;;5051084;28;20080;-71
2022/10/13 05:19:13;;;;;;;31.52;19.67;;;10.10;99.90;;;;;;5051182;28;20106;-71
2022/10/13 05:21:39;;;;;;;32.42;19.92;;;10.10;99.90;;;;;;5050505;28;20032;-72
2022/10/13 05:24:05;;;;;;;34.33;18.65;;;10.00;99.90;;;;;;5059516;28;20323;-69
2022/10/13 05:26:34;;;;;;;27.92;18.63;;;10.10;99.90;;;;;;5055810;28;20061;-70
2022/10/13 05:29:01;;;;;;;33.88;19.55;;;10.10;99.90;;;;;;5054102;28;20109;-71
2022/10/13 05:31:28;;;;;;;35.90;19.25;;;10.40;99.90;;;;;;5052876;28;20064;-71
2022/10/13 05:33:54;;;;;;;32.38;20.20;;;10.10;99.90;;;;;;5045978;28;20048;-71
2022/10/13 05:36:31;;;;;;;42.75;21.13;;;10.40;99.90;;;;;;5041014;28;20163;-70
2022/10/13 05:39:03;;;;;;;33.83;20.33;;;10.10;99.90;;;;;;5045285;28;20045;-70
2022/10/13 05:41:29;;;;;;;36.25;20.23;;;10.10;99.90;;;;;;5045191;28;20275;-70
2022/10/13 05:44:03;;;;;;;38.58;21.92;;;10.20;99.90;;;;;;5057620;28;20324;-71
2022/10/13 05:46:29;;;;;;;32.72;19.02;;;10.10;99.90;;;;;;5054047;28;20075;-70
2022/10/13 05:48:55;;;;;;;35.08;19.77;;;10.20;99.90;;;;;;5034331;28;21527;-72
2022/10/13 05:51:27;;;;;;;36.55;21.20;;;10.10;99.90;;;;;;5064083;28;20421;-70
2022/10/13 05:54:19;;;;;;;36.35;20.88;;;10.20;99.90;;;;;;5050563;28;20139;-70
2022/10/13 05:56:54;;;;;;;41.95;22.98;;;10.10;99.90;;;;;;5058380;28;20639;-70
2022/10/13 05:59:21;;;;;;;43.72;20.88;;;10.20;99.90;;;;;;5073854;28;20402;-70
2022/10/13 06:01:48;;;;;;;39.53;21.80;;;10.20;99.90;;;;;;5057162;28;20041;-70
2022/10/13 06:04:24;;;;;;;34.05;20.10;;;10.20;99.90;;;;;;5060690;28;20044;-70
2022/10/13 06:06:50;;;;;;;38.95;22.42;;;10.20;99.90;;;;;;5044582;28;20557;-71
2022/10/13 06:09:16;;;;;;;32.33;20.38;;;10.20;99.90;;;;;;5049025;28;20045;-70
2022/10/13 06:11:42;;;;;;;39.42;22.88;;;10.20;99.90;;;;;;5051609;28;20405;-70
2022/10/13 06:14:08;;;;;;;37.05;23.58;;;10.20;99.90;;;;;;5058016;28;20721;-69
2022/10/13 06:16:38;;;;;;;35.65;21.67;;;10.20;99.90;;;;;;5041509;28;20043;-70
2022/10/13 06:19:04;;;;;;;38.47;21.63;;;10.30;99.90;;;;;;5057871;28;20406;-70
2022/10/13 06:21:30;;;;;;;42.03;23.55;;;10.30;99.90;;;;;;5042431;28;20101;-69
2022/10/13 06:23:56;;;;;;;40.78;23.42;;;10.30;99.90;;;;;;5060095;28;20653;-70
2022/10/13 06:26:21;;;;;;;40.40;24.02;;;10.30;99.90;;;;;;5051545;28;20422;-70
2022/10/13 06:28:47;;;;;;;39.33;22.30;;;10.30;99.90;;;;;;5052773;28;20045;-70
2022/10/13 06:31:13;;;;;;;38.80;23.27;;;10.30;99.90;;;;;;5054319;28;20065;-71
2022/10/13 06:33:39;;;;;;;34.85;22.88;;;10.30;99.90;;;;;;5045345;28;20056;-70
2022/10/13 06:36:05;;;;;;;37.75;22.42;;;10.30;99.90;;;;;;5050655;28;20052;-70
2022/10/13 06:38:32;;;;;;;35.10;21.80;;;10.30;99.90;;;;;;5048991;28;20041;-71
2022/10/13 06:41:02;;;;;;;37.72;23.15;;;10.40;99.90;;;;;;5051044;28;20143;-71
2022/10/13 06:43:27;;;;;;;43.95;23.63;;;10.30;99.90;;;;;;5054547;28;20059;-70
2022/10/13 06:45:57;;;;;;;42.90;23.02;;;10.40;99.90;;;;;;5060147;28;20040;-70
2022/10/13 06:48:23;;;;;;;36.22;22.98;;;10.40;99.90;;;;;;5052127;28;20044;-70
2022/10/13 06:50:49;;;;;;;37.53;22.48;;;10.40;99.90;;;;;;5067543;28;20099;-70
2022/10/13 06:53:15;;;;;;;37.75;22.50;;;10.50;99.90;;;;;;5054838;28;20045;-73
2022/10/13 06:55:42;;;;;;;32.10;21.35;;;10.50;99.90;;;;;;5086619;28;20646;-70
2022/10/13 06:58:11;;;;;;;39.05;21.95;;;10.50;99.90;;;;;;5060468;28;20049;-69
2022/10/13 07:00:40;;;;;;;40.78;22.77;;;10.50;99.90;;;;;;5058433;28;20406;-69
2022/10/13 07:03:06;;;;;;;42.13;24.45;;;10.50;99.90;;;;;;5081880;28;20072;-69
2022/10/13 07:05:32;;;;;;;39.47;23.42;;;10.50;99.90;;;;;;5057588;28;20076;-69
2022/10/13 07:07:58;;;;;;;40.03;21.95;;;10.50;99.90;;;;;;5051827;28;20048;-69
2022/10/13 07:10:23;;;;;;;42.65;25.23;;;10.60;99.90;;;;;;5057221;28;20040;-69
2022/10/13 07:12:49;;;;;;;43.65;25.42;;;10.60;99.90;;;;;;5024892;28;20075;-69
2022/10/13 07:15:15;;;;;;;42.78;24.55;;;10.60;99.90;;;;;;5060303;28;20036;-68
2022/10/13 07:17:41;;;;;;;49.25;26.25;;;10.60;99.90;;;;;;5050718;28;20575;-69
2022/10/13 07:20:07;;;;;;;36.00;23.27;;;10.70;99.90;;;;;;5057114;28;20061;-69
2022/10/13 07:22:32;;;;;;;42.95;25.27;;;10.70;99.90;;;;;;5057501;28;20040;-68
2022/10/13 07:24:58;;;;;;;44.88;24.67;;;10.80;99.90;;;;;;5061833;28;20054;-69
2022/10/13 07:27:24;;;;;;;43.85;23.05;;;10.80;99.90;;;;;;5059097;28;20064;-69
2022/10/13 07:29:50;;;;;;;43.58;25.63;;;10.90;99.90;;;;;;5056928;28;20114;-69
2022/10/13 07:32:16;;;;;;;42.90;25.38;;;10.90;99.90;;;;;;5058710;28;20066;-69
2022/10/13 07:34:42;;;;;;;45.40;24.33;;;11.00;99.90;;;;;;5058803;28;20036;-68
2022/10/13 07:37:08;;;;;;;45.92;24.85;;;11.00;99.90;;;;;;5063487;28;20072;-69
2022/10/13 07:39:33;;;;;;;39.90;23.45;;;11.00;99.90;;;;;;5056352;28;20114;-69
2022/10/13 07:41:59;;;;;;;40.85;23.08;;;11.40;99.90;;;;;;5064359;28;20029;-68
2022/10/13 07:44:25;;;;;;;38.88;24.35;;;11.10;99.90;;;;;;5057345;28;20049;-68
2022/10/13 07:46:51;;;;;;;38.30;23.63;;;11.10;99.90;;;;;;5063159;28;20439;-69
2022/10/13 07:49:16;;;;;;;37.35;23.60;;;11.20;99.90;;;;;;5061862;28;20044;-69
2022/10/13 07:51:43;;;;;;;39.42;24.88;;;11.20;99.90;;;;;;5041827;28;20041;-69
2022/10/13 07:54:09;;;;;;;44.38;25.40;;;11.30;99.90;;;;;;5041863;28;20056;-68
2022/10/13 07:56:34;;;;;;;42.20;25.83;;;11.30;99.90;;;;;;5036958;28;20044;-68
2022/10/13 07:59:03;;;;;;;44.20;23.65;;;11.30;99.90;;;;;;5054446;28;20047;-69
2022/10/13 08:01:28;;;;;;;41.08;23.02;;;11.40;99.90;;;;;;5060136;28;20059;-68
2022/10/13 08:03:55;;;;;;;39.30;23.50;;;11.40;99.90;;;;;;5044924;28;20045;-68
2022/10/13 08:06:21;;;;;;;38.70;23.75;;;11.50;99.90;;;;;;5076103;28;20068;-69
2022/10/13 08:08:47;;;;;;;41.65;24.05;;;11.50;99.90;;;;;;5060711;28;20041;-68
2022/10/13 08:11:14;;;;;;;38.28;23.63;;;11.60;99.90;;;;;;5045795;28;20055;-69
2022/10/13 08:13:40;;;;;;;39.90;23.30;;;11.60;99.90;;;;;;5060492;28;20176;-69
2022/10/13 08:16:06;;;;;;;37.75;23.73;;;11.60;99.90;;;;;;5062963;28;20052;-68
2022/10/13 08:18:32;;;;;;;36.15;22.60;;;11.70;99.90;;;;;;5060974;28;20037;-68
2022/10/13 08:21:02;;;;;;;42.38;23.65;;;11.70;99.90;;;;;;5046198;28;20145;-69
2022/10/13 08:23:28;;;;;;;41.30;22.60;;;11.70;99.90;;;;;;5058087;28;20051;-68
2022/10/13 08:25:55;;;;;;;39.28;23.30;;;11.70;99.90;;;;;;5059665;28;20045;-68
2022/10/13 08:28:29;;;;;;;34.60;21.38;;;11.80;99.90;;;;;;5061725;28;20040;-68
2022/10/13 08:30:58;;;;;;;39.95;20.90;;;11.80;99.90;;;;;;5056737;28;20853;-69
2022/10/13 08:33:25;;;;;;;35.15;21.98;;;11.80;99.90;;;;;;5061143;28;20037;-69
2022/10/13 08:35:52;;;;;;;37.17;23.13;;;11.80;99.90;;;;;;5059444;28;20078;-69
2022/10/13 08:38:18;;;;;;;36.03;21.38;;;11.80;99.90;;;;;;5059811;28;20048;-69
2022/10/13 08:40:48;;;;;;;36.28;23.25;;;11.90;99.90;;;;;;5059967;28;20040;-69
2022/10/13 08:43:20;;;;;;;37.95;22.95;;;11.90;99.90;;;;;;5057541;28;20493;-69
2022/10/13 08:45:49;;;;;;;37.28;22.98;;;11.90;99.90;;;;;;5057899;28;20410;-69
2022/10/13 08:48:26;;;;;;;36.42;23.20;;;11.90;99.90;;;;;;5060720;28;20052;-69
2022/10/13 08:50:58;;;;;;;38.42;23.45;;;11.90;99.90;;;;;;5061922;28;20516;-69
2022/10/13 08:53:29;;;;;;;40.05;24.25;;;12.00;99.90;;;;;;5060979;28;20521;-69
2022/10/13 08:56:03;;;;;;;42.60;23.60;;;11.90;99.90;;;;;;5062792;28;20517;-69
2022/10/13 08:58:33;;;;;;;39.80;24.38;;;12.00;99.90;;;;;;5084683;28;20072;-69
2022/10/13 09:01:08;;;;;;;40.03;23.30;;;12.00;99.90;;;;;;5044141;28;20085;-71
2022/10/13 09:04:07;;;;;;;36.33;24.40;;;12.00;99.90;;;;;;5044892;28;20273;-71
2022/10/13 09:06:38;;;;;;;41.00;24.75;;;12.10;99.90;;;;;;5061328;28;20052;-71
2022/10/13 09:09:05;;;;;;;;;;;12.10;99.90;;;;;;5061198;28;20430;-71
2022/10/13 09:11:37;;;;;;;39.45;23.70;;;12.10;99.90;;;;;;5064245;28;19932;-70
2022/10/13 09:14:07;;;;;;;38.67;25.08;;;12.10;99.90;;;;;;5059069;28;20490;-71
2022/10/13 09:16:42;;;;;;;34.55;24.95;;;12.20;99.90;;;;;;5043121;28;20469;-70
2022/10/13 09:19:29;;;;;;;42.13;26.17;;;12.20;99.90;;;;;;5085527;28;20455;-70
2022/10/13 09:21:57;;;;;;;42.88;25.77;;;12.20;99.90;;;;;;5060132;28;20049;-70
2022/10/13 09:24:25;;;;;;;41.67;26.13;;;12.20;99.90;;;;;;5053436;28;20094;-71
2022/10/13 09:27:11;;;;;;;41.88;24.77;;;12.20;99.90;;;;;;5047454;28;20100;-71
2022/10/13 09:29:36;;;;;;;38.88;23.75;;;12.30;99.90;;;;;;5050747;28;20044;-71
2022/10/13 09:32:20;;;;;;;39.50;25.70;;;12.50;99.90;;;;;;5055842;28;20125;-71
2022/10/13 09:34:46;;;;;;;41.30;25.05;;;12.40;99.90;;;;;;5059943;28;20068;-71
2022/10/13 09:37:23;;;;;;;40.85;26.65;;;12.40;99.90;;;;;;5087768;28;20037;-70
2022/10/13 09:40:18;;;;;;;41.20;24.77;;;12.40;99.90;;;;;;5057515;28;20044;-70
2022/10/13 09:42:50;;;;;;;42.00;24.92;;;12.40;99.90;;;;;;5083754;28;20048;-70
2022/10/13 09:45:20;;;;;;;37.42;24.30;;;12.50;99.90;;;;;;5061602;28;20447;-70
2022/10/13 09:48:06;;;;;;;39.38;23.95;;;12.50;99.90;;;;;;5042683;28;20033;-70
2022/10/13 09:50:34;;;;;;;35.33;23.95;;;12.50;99.90;;;;;;5062045;28;20041;-70
2022/10/13 09:53:25;;;;;;;41.92;24.80;;;12.60;99.90;;;;;;5044987;28;20552;-71
2022/10/13 09:56:29;;;;;;;38.25;23.10;;;12.60;99.90;;;;;;5059941;28;20094;-71
2022/10/13 09:59:23;;;;;;;35.55;22.75;;;12.60;99.90;;;;;;5039949;28;20056;-71
2022/10/13 10:01:50;;;;;;;40.40;23.58;;;12.70;99.90;;;;;;5059696;28;20127;-71
2022/10/13 10:04:22;;;;;;;41.20;23.83;;;12.70;99.90;;;;;;5060734;28;20049;-71
2022/10/13 10:06:48;;;;;;;42.35;24.30;;;12.70;99.90;;;;;;5063262;28;20131;-71
2022/10/13 10:09:16;;;;;;;36.58;22.30;;;12.70;99.90;;;;;;5060487;28;20132;-72
2022/10/13 10:11:46;;;;;;;35.78;22.13;;;12.80;99.90;;;;;;5053462;28;20382;-71
2022/10/13 10:14:28;;;;;;;35.95;23.25;;;12.80;99.90;;;;;;5061287;28;20544;-71
2022/10/13 10:17:17;;;;;;;38.97;23.77;;;12.80;99.90;;;;;;5053472;28;20040;-71
2022/10/13 10:20:14;;;;;;;38.50;22.90;;;12.90;99.90;;;;;;5057900;28;20071;-71
2022/10/13 10:23:03;;;;;;;36.03;22.63;;;12.90;99.90;;;;;;5063073;28;20080;-71
2022/10/13 10:26:05;;;;;;;35.10;23.20;;;12.90;99.90;;;;;;5060165;28;20088;-71
2022/10/13 10:28:36;;;;;;;34.90;22.25;;;13.00;99.90;;;;;;5048217;28;20310;-71
2022/10/13 10:31:05;;;;;;;;;;;13.00;99.90;;;;;;5087910;28;20045;-71
2022/10/13 10:34:02;;;;;;;33.33;20.73;;;13.00;99.90;;;;;;5065357;28;19928;-71
2022/10/13 10:36:42;;;;;;;30.10;21.50;;;13.00;99.90;;;;;;5065793;28;20032;-71
2022/10/13 10:39:26;;;;;;;35.22;22.50;;;13.00;99.90;;;;;;5040067;28;20049;-71
2022/10/13 10:42:01;;;;;;;32.50;21.38;;;13.00;99.90;;;;;;5061780;28;20821;-71
2022/10/13 10:44:34;;;;;;;33.33;21.83;;;13.00;99.90;;;;;;5059579;28;20052;-71
2022/10/13 10:47:30;;;;;;;32.03;21.75;;;13.10;99.90;;;;;;5062456;28;20044;-71
2022/10/13 10:50:04;;;;;;;35.78;21.33;;;13.10;99.90;;;;;;5064252;28;20080;-71
2022/10/13 10:52:46;;;;;;;32.70;20.15;;;13.10;99.90;;;;;;5059395;28;20036;-71
2022/10/13 10:55:36;;;;;;;27.60;19.83;;;13.10;99.90;;;;;;5086237;28;20607;-72
2022/10/13 10:58:35;;;;;;;28.48;19.75;;;13.10;99.90;;;;;;5051121;28;20057;-71
2022/10/13 11:01:18;;;;;;;30.45;19.90;;;13.10;99.90;;;;;;5057324;28;20056;-71
2022/10/13 11:03:50;;;;;;;28.25;19.65;;;13.10;99.90;;;;;;5062055;28;20434;-71
2022/10/13 11:06:16;;;;;;;33.08;20.90;;;13.20;99.90;;;;;;5093182;28;20447;-71
2022/10/13 11:08:45;;;;;;;32.20;20.42;;;13.20;99.90;;;;;;5064005;28;20098;-71
2022/10/13 11:11:32;;;;;;;36.63;21.33;;;13.20;99.90;;;;;;5061899;28;20048;-71
2022/10/13 11:14:04;;;;;;;33.60;20.80;;;13.30;99.90;;;;;;5062974;28;20045;-71
2022/10/13 11:16:37;;;;;;;35.30;22.85;;;13.30;99.90;;;;;;5064369;28;20606;-71
2022/10/13 11:19:34;;;;;;;30.70;21.40;;;13.40;99.90;;;;;;5059509;28;20044;-71
2022/10/13 11:22:00;;;;;;;33.17;20.92;;;13.40;99.90;;;;;;5061991;28;20374;-71
2022/10/13 11:24:35;;;;;;;29.13;21.02;;;13.50;99.90;;;;;;5060885;28;20040;-71
2022/10/13 11:27:07;;;;;;;29.77;20.08;;;13.50;99.90;;;;;;5054202;28;20481;-71
2022/10/13 11:29:45;;;;;;;29.48;21.23;;;13.50;99.90;;;;;;5059640;28;20324;-71
2022/10/13 11:32:40;;;;;;;28.80;20.08;;;13.50;99.90;;;;;;5060690;28;20028;-71
2022/10/13 11:35:05;;;;;;;28.42;19.73;;;13.50;99.90;;;;;;5063050;28;20119;-71
2022/10/13 11:37:38;;;;;;;28.15;20.17;;;13.60;99.90;;;;;;5064165;28;20163;-71
2022/10/13 11:40:22;;;;;;;28.77;20.75;;;13.60;99.90;;;;;;5063387;28;20800;-71
2022/10/13 11:43:10;;;;;;;29.90;19.75;;;13.60;99.90;;;;;;5061958;28;20433;-71
2022/10/13 11:45:40;;;;;;;27.60;19.02;;;13.60;99.90;;;;;;5043431;28;20036;-71
2022/10/13 11:48:34;;;;;;;29.08;19.42;;;13.60;99.90;;;;;;5063703;28;20044;-71
2022/10/13 11:51:06;;;;;;;30.05;20.60;;;13.60;99.90;;;;;;5061642;28;20053;-71
2022/10/13 11:54:11;;;;;;;26.85;18.67;;;13.70;99.90;;;;;;5062305;28;20044;-71
2022/10/13 11:56:52;;;;;;;26.38;20.38;;;13.70;99.90;;;;;;5063353;28;20152;-71
2022/10/13 11:59:36;;;;;;;22.35;17.92;;;13.70;99.90;;;;;;5043994;28;20048;-71
2022/10/13 12:02:10;;;;;;;26.58;19.13;;;13.70;99.90;;;;;;5062530;28;20434;-71
2022/10/13 12:04:37;;;;;;;24.70;19.00;;;13.70;99.90;;;;;;5065285;28;20079;-71
2022/10/13 12:07:06;;;;;;;25.77;17.95;;;13.80;99.90;;;;;;5062332;28;20052;-71
2022/10/13 12:09:38;;;;;;;24.58;17.50;;;13.80;99.90;;;;;;5060661;28;20462;-71
2022/10/13 12:12:13;;;;;;;25.88;18.95;;;13.80;99.90;;;;;;5062784;28;20059;-71
2022/10/13 12:14:43;;;;;;;24.88;17.48;;;13.90;99.90;;;;;;5063327;28;20041;-72
2022/10/13 12:17:27;;;;;;;26.55;18.27;;;13.90;99.90;;;;;;5063347;28;20370;-71
2022/10/13 12:19:58;;;;;;;25.90;18.25;;;13.90;99.90;;;;;;5060873;28;20086;-71
2022/10/13 12:22:24;;;;;;;26.08;18.42;;;13.90;99.90;;;;;;5091101;28;20497;-71
2022/10/13 12:25:02;;;;;;;26.27;18.35;;;13.90;99.90;;;;;;5059890;28;20075;-71
2022/10/13 12:27:31;;;;;;;26.00;18.38;;;14.00;99.90;;;;;;5062316;28;20072;-70
2022/10/13 12:30:01;;;;;;;26.77;19.08;;;14.00;99.90;;;;;;5057921;28;20294;-71
2022/10/13 12:32:34;;;;;;;23.77;19.02;;;14.00;99.90;;;;;;5087886;28;20214;-70
2022/10/13 12:35:16;;;;;;;28.42;18.42;;;14.10;99.90;;;;;;5046516;28;20042;-70
2022/10/13 12:37:44;;;;;;;24.05;17.40;;;14.10;99.90;;;;;;5094330;28;20080;-70
2022/10/13 12:40:14;;;;;;;24.17;17.63;;;14.10;99.90;;;;;;5062755;28;20056;-70
2022/10/13 12:42:40;;;;;;;22.73;17.58;;;14.10;99.90;;;;;;5063239;28;20766;-70
2022/10/13 12:45:07;;;;;;;24.65;18.58;;;14.10;99.90;;;;;;5058745;28;20194;-70
2022/10/13 12:47:44;;;;;;;29.20;19.63;;;14.10;99.90;;;;;;5062935;28;20525;-70